Larache, Morocco
Current Conditions -  °F | °C
As of 4:30 AM on Tuesday 21 Oct 2014 (Local Time) from GMTT Reporting Station
NA  
Wind Chill: 68°   Ceiling: NA
Heat Index: 68°   Visibility: 6mi
Dew Point: 55°   Wind: 6mph
Humidity: 64%   Direction: 120°ESE
Pressure: 30.09"   Gusts: NA
Location:  35.2°N, 6.16°W
Report Text: GMTT 210330Z AUTO 12005KT 070V150 9999NDV /// 20/13 Q1019
Loading
Personal Weather Stations






























Interactive Weather Map
Tropical Storm Tracking
New forecast layout! Learn more

10-Day Weather Forecast

Advertisements
Track Severe Weather on mobile